Time;durP1;ratioP1;P1;durP2;ratioP2;P2;SDS_P1;SDS_P2;PMS_P1;PMS_P2;Temp;Humidity;BMP_temperature;BMP_pressure;BME280_temperature;BME280_humidity;BME280_pressure;Samples;Min_cycle;Max_cycle;Signal;HPM_P1;HPM_P2
2023/12/16 00:01:55;;;;;;;;;12.00;11.50;;;;;10.56;59.19;103664.31;5056623;28;46677;-73
2023/12/16 00:04:24;;;;;;;;;15.75;14.00;;;;;10.91;59.22;103714.94;5056414;28;45356;-72
2023/12/16 00:06:49;;;;;;;;;14.25;12.75;;;;;10.70;58.80;103674.56;5057787;28;45707;-69
2023/12/16 00:09:15;;;;;;;;;14.50;12.75;;;;;10.97;59.32;103720.47;5059615;28;45429;-69
2023/12/16 00:11:41;;;;;;;;;16.75;12.25;;;;;11.01;60.13;103722.44;5057499;28;45967;-69
2023/12/16 00:14:08;;;;;;;;;14.00;10.75;;;;;10.82;58.79;103690.91;5057653;28;45467;-72
2023/12/16 00:16:42;;;;;;;;;15.75;11.50;;;;;11.01;59.31;103721.53;5057827;28;45365;-71
2023/12/16 00:19:08;;;;;;;;;14.50;10.75;;;;;10.46;59.52;103630.59;5058877;28;45409;-69
2023/12/16 00:21:34;;;;;;;;;14.50;12.00;;;;;11.00;59.37;103723.25;5059159;28;46127;-71
2023/12/16 00:23:59;;;;;;;;;14.25;10.50;;;;;10.75;58.78;103687.09;5059152;28;45331;-71
2023/12/16 00:26:25;;;;;;;;;13.75;10.50;;;;;10.82;59.26;103709.28;5059414;28;45409;-70
2023/12/16 00:28:50;;;;;;;;;14.25;13.50;;;;;10.91;60.39;103724.53;5059293;28;45436;-72
2023/12/16 00:31:16;;;;;;;;;22.75;14.50;;;;;10.90;59.20;103722.75;5058929;28;46136;-71
2023/12/16 00:33:41;;;;;;;;;14.50;10.75;;;;;10.89;59.15;103726.16;5058113;28;45542;-71
2023/12/16 00:36:08;;;;;;;;;14.75;10.00;;;;;10.90;59.66;103718.38;5049042;28;45368;-73
2023/12/16 00:38:33;;;;;;;;;15.25;11.75;;;;;10.69;59.73;103683.25;5051236;28;45396;-71
2023/12/16 00:40:59;;;;;;;;;14.50;12.00;;;;;10.90;59.47;103720.13;5047800;28;45506;-74
2023/12/16 00:43:24;;;;;;;;;9.75;5.50;;;;;10.88;59.50;103724.38;5059062;28;45424;-72
2023/12/16 00:45:50;;;;;;;;;17.75;13.25;;;;;10.79;59.42;103716.97;5050394;28;45326;-73
2023/12/16 00:48:15;;;;;;;;;13.50;12.50;;;;;10.75;59.34;103715.03;5053183;28;45210;-71
2023/12/16 00:50:42;;;;;;;;;12.25;10.75;;;;;10.77;59.54;103713.34;5050963;28;46256;-70
2023/12/16 00:53:08;;;;;;;;;17.50;14.50;;;;;10.80;59.96;103716.16;5056665;28;45440;-70
2023/12/16 00:55:33;;;;;;;;;17.75;11.25;;;;;10.77;59.73;103719.53;5058808;28;45592;-71
2023/12/16 00:58:01;;;;;;;;;15.50;12.00;;;;;10.61;59.46;103696.00;5059848;28;45513;-71
2023/12/16 01:00:29;;;;;;;;;11.25;10.00;;;;;10.68;58.96;103699.78;5058821;28;45704;-73
2023/12/16 01:02:55;;;;;;;;;15.75;12.00;;;;;10.77;59.08;103731.72;5057963;28;45512;-71
2023/12/16 01:05:21;;;;;;;;;15.00;10.25;;;;;10.71;59.40;103710.47;5057496;28;45456;-73
2023/12/16 01:07:50;;;;;;;;;13.75;9.50;;;;;10.72;58.22;103710.50;5057471;28;45330;-72
2023/12/16 01:10:19;;;;;;;;;16.00;9.50;;;;;10.58;58.36;103696.75;5047379;28;45568;-72
2023/12/16 01:12:45;;;;;;;;;8.50;8.50;;;;;10.55;58.28;103685.19;5050077;28;45483;-70
2023/12/16 01:15:11;;;;;;;;;16.75;10.25;;;;;10.60;58.88;103692.47;5052932;28;45442;-72
2023/12/16 01:17:37;;;;;;;;;16.50;12.75;;;;;10.67;59.07;103711.13;5057836;28;45365;-74
2023/12/16 01:20:04;;;;;;;;;13.50;9.75;;;;;10.70;59.50;103709.56;5057506;28;45480;-72
2023/12/16 01:22:31;;;;;;;;;9.00;9.00;;;;;10.70;58.31;103714.81;5057507;28;45380;-72
2023/12/16 01:24:56;;;;;;;;;10.00;9.50;;;;;10.36;58.30;103650.22;5057228;28;45566;-72
2023/12/16 01:27:22;;;;;;;;;14.50;8.75;;;;;10.70;58.90;103706.03;5059015;28;45677;-72
2023/12/16 01:29:58;;;;;;;;;12.50;9.25;;;;;10.68;58.66;103705.97;5058738;28;45807;-74
2023/12/16 01:32:25;;;;;;;;;10.00;5.75;;;;;10.49;58.79;103674.44;5053098;28;45410;-72
2023/12/16 01:34:51;;;;;;;;;10.25;9.25;;;;;10.42;60.11;103673.22;5058983;28;45448;-72
2023/12/16 01:37:17;;;;;;;;;11.50;10.00;;;;;10.51;59.20;103689.41;5054803;28;45519;-72
2023/12/16 01:39:42;;;;;;;;;11.00;10.25;;;;;10.59;59.92;103703.78;5064183;28;45520;-70
2023/12/16 01:42:08;;;;;;;;;9.50;7.00;;;;;10.60;59.19;103700.31;5056813;28;45447;-71
2023/12/16 01:44:33;;;;;;;;;12.00;8.50;;;;;10.57;59.58;103696.66;5057843;28;45505;-71
2023/12/16 01:46:59;;;;;;;;;13.50;8.50;;;;;10.67;59.61;103717.25;5057966;28;45214;-71
2023/12/16 01:49:25;;;;;;;;;7.25;5.50;;;;;10.51;59.31;103693.72;5057003;28;45332;-71
2023/12/16 01:51:52;;;;;;;;;9.00;8.75;;;;;10.68;58.92;103721.69;5057205;28;45559;-70
2023/12/16 01:54:18;;;;;;;;;11.50;9.75;;;;;10.68;59.03;103723.38;5055775;28;45455;-71
2023/12/16 01:56:49;;;;;;;;;10.50;10.50;;;;;10.51;58.87;103704.22;5056964;28;45458;-71
2023/12/16 01:59:14;;;;;;;;;12.25;10.25;;;;;10.59;59.31;103716.88;5056216;28;45526;-70
2023/12/16 02:01:40;;;;;;;;;13.00;10.50;;;;;10.61;59.31;103717.88;5055437;28;45520;-72
2023/12/16 02:04:06;;;;;;;;;11.25;9.50;;;;;10.66;59.52;103728.56;5056658;28;45365;-70
2023/12/16 02:06:32;;;;;;;;;12.75;10.25;;;;;10.69;59.00;103739.22;5052072;28;45434;-71
2023/12/16 02:08:58;;;;;;;;;9.75;8.75;;;;;10.35;58.74;103682.50;5047625;28;46076;-72
2023/12/16 02:11:23;;;;;;;;;13.00;10.50;;;;;10.37;58.40;103685.22;5058006;28;45415;-72
2023/12/16 02:13:52;;;;;;;;;11.00;8.00;;;;;10.65;59.11;103746.84;5057817;28;45404;-72
2023/12/16 02:16:17;;;;;;;;;16.00;10.25;;;;;10.50;59.34;103718.16;5056949;28;45518;-72
2023/12/16 02:18:42;;;;;;;;;12.75;8.25;;;;;10.59;59.39;103732.63;5056011;28;46018;-72
2023/12/16 02:21:08;;;;;;;;;12.00;8.75;;;;;10.59;58.92;103740.47;5057593;28;45176;-72
2023/12/16 02:23:36;;;;;;;;;13.00;10.75;;;;;10.56;58.05;103739.44;5056150;28;45492;-72
2023/12/16 02:26:02;;;;;;;;;13.75;11.00;;;;;10.50;58.52;103733.88;5056719;28;45460;-71
2023/12/16 02:28:28;;;;;;;;;13.00;11.50;;;;;10.47;58.72;103732.00;5055818;28;46546;-71
2023/12/16 02:30:53;;;;;;;;;13.25;6.25;;;;;10.45;58.62;103728.41;5056221;28;45341;-70
2023/12/16 02:33:19;;;;;;;;;11.00;9.25;;;;;10.34;59.71;103714.75;5056347;28;45410;-71
2023/12/16 02:35:44;;;;;;;;;12.75;12.75;;;;;10.41;58.83;103726.44;5056450;28;45463;-70
2023/12/16 02:38:10;;;;;;;;;10.25;8.00;;;;;10.30;59.39;103710.19;5057337;28;45918;-69
2023/12/16 02:40:41;;;;;;;;;8.25;7.50;;;;;10.36;59.84;103722.69;5057496;28;45412;-72
2023/12/16 02:43:08;;;;;;;;;16.00;9.50;;;;;10.36;59.63;103731.44;5057827;28;45798;-72
2023/12/16 02:45:33;;;;;;;;;17.50;13.00;;;;;10.29;59.90;103724.09;5058921;28;45443;-71
2023/12/16 02:47:59;;;;;;;;;11.50;11.00;;;;;10.24;58.93;103717.69;5058691;28;47945;-72
2023/12/16 02:50:25;;;;;;;;;10.50;8.25;;;;;10.31;59.65;103740.78;5063446;28;45824;-71
2023/12/16 02:52:50;;;;;;;;;9.50;7.00;;;;;10.22;60.13;103726.31;5064261;28;45241;-71
2023/12/16 02:55:18;;;;;;;;;12.00;12.00;;;;;10.25;61.05;103739.53;5062162;28;45444;-71
2023/12/16 02:57:44;;;;;;;;;14.25;10.75;;;;;10.18;61.00;103726.16;5060336;28;46007;-70
2023/12/16 03:00:10;;;;;;;;;14.50;10.25;;;;;10.24;60.47;103746.50;5060183;28;45620;-70
2023/12/16 03:02:36;;;;;;;;;14.25;11.75;;;;;10.18;60.13;103741.88;5059344;28;45373;-71
2023/12/16 03:05:02;;;;;;;;;10.50;7.25;;;;;10.23;59.82;103749.03;5060290;28;45325;-71
2023/12/16 03:07:27;;;;;;;;;10.50;10.25;;;;;10.18;60.08;103748.84;5059304;28;46099;-73
2023/12/16 03:09:54;;;;;;;;;14.00;11.75;;;;;10.03;60.01;103722.72;5058841;28;45563;-70
2023/12/16 03:12:20;;;;;;;;;17.25;11.50;;;;;10.17;61.00;103755.75;5059454;28;45270;-71
2023/12/16 03:14:51;;;;;;;;;16.75;10.25;;;;;10.15;59.92;103759.13;5056511;28;45424;-71
2023/12/16 03:17:17;;;;;;;;;16.75;12.25;;;;;10.13;59.96;103763.38;5059241;28;46055;-72
2023/12/16 03:19:42;;;;;;;;;11.75;9.50;;;;;10.11;60.81;103765.94;5057950;28;45582;-70
2023/12/16 03:22:08;;;;;;;;;16.25;10.50;;;;;10.10;59.90;103760.63;5060180;28;45444;-70
2023/12/16 03:24:34;;;;;;;;;10.75;6.00;;;;;10.08;60.02;103768.38;5051116;28;45332;-70
2023/12/16 03:26:59;;;;;;;;;16.25;14.00;;;;;9.98;60.51;103759.13;5059166;28;45484;-70
2023/12/16 03:29:25;;;;;;;;;14.50;11.25;;;;;9.83;60.33;103733.88;5059169;28;45507;-70
2023/12/16 03:31:51;;;;;;;;;13.75;12.25;;;;;10.03;60.25;103767.25;5059082;28;45406;-70
2023/12/16 03:34:16;;;;;;;;;11.50;10.50;;;;;10.02;60.48;103772.41;5060003;28;45592;-71
2023/12/16 03:36:43;;;;;;;;;16.25;12.50;;;;;9.98;60.61;103760.88;5058830;28;45371;-70
2023/12/16 03:39:09;;;;;;;;;9.50;8.50;;;;;10.01;61.11;103776.72;5056925;28;45530;-71
2023/12/16 03:41:34;;;;;;;;;8.50;8.50;;;;;9.96;60.51;103760.78;5059193;28;45253;-72
2023/12/16 03:44:00;;;;;;;;;15.50;12.00;;;;;9.87;60.91;103736.75;5057789;28;45406;-71
2023/12/16 03:46:26;;;;;;;;;13.00;12.00;;;;;9.91;61.13;103741.31;5058464;28;46134;-71
2023/12/16 03:48:52;;;;;;;;;10.25;9.50;;;;;10.02;60.79;103759.31;5057962;28;45480;-70
2023/12/16 03:51:24;;;;;;;;;15.00;12.75;;;;;10.05;60.98;103760.38;5058345;28;45470;-71
2023/12/16 03:53:52;;;;;;;;;14.25;12.75;;;;;9.96;60.71;103745.06;5048191;28;45538;-71
2023/12/16 03:56:26;;;;;;;;;12.75;10.75;;;;;10.06;60.54;103756.94;5046274;28;46296;-70
2023/12/16 03:58:56;;;;;;;;;12.00;10.00;;;;;10.04;60.25;103761.22;5053739;28;45505;-71
2023/12/16 04:01:21;;;;;;;;;9.25;9.25;;;;;9.56;60.20;103676.63;5058855;27;45339;-70
2023/12/16 04:03:47;;;;;;;;;14.50;10.50;;;;;9.18;59.53;103617.91;5042274;28;45526;-70
2023/12/16 04:06:15;;;;;;;;;14.75;12.25;;;;;9.86;59.64;103741.91;5067450;28;48001;-70
2023/12/16 04:08:42;;;;;;;;;12.25;10.25;;;;;9.97;59.97;103759.09;5049578;28;45394;-73
2023/12/16 04:11:08;;;;;;;;;13.25;8.50;;;;;9.74;59.33;103708.13;5056862;28;45542;-71
2023/12/16 04:13:35;;;;;;;;;14.25;10.00;;;;;9.81;59.42;103723.31;5058674;28;45365;-71
2023/12/16 04:16:01;;;;;;;;;17.75;11.75;;;;;10.05;59.79;103767.34;5058578;28;45497;-70
2023/12/16 04:18:31;;;;;;;;;11.50;8.75;;;;;10.04;59.55;103750.72;5057718;28;45540;-70
2023/12/16 04:20:58;;;;;;;;;14.75;11.25;;;;;10.08;59.00;103755.28;5058311;28;45227;-70
2023/12/16 04:23:24;;;;;;;;;15.00;12.00;;;;;10.03;59.56;103755.88;5059324;28;45397;-69
2023/12/16 04:25:49;;;;;;;;;14.25;9.75;;;;;9.95;59.39;103745.00;5057797;28;46155;-72
2023/12/16 04:28:15;;;;;;;;;16.50;11.00;;;;;9.90;59.84;103715.97;5057646;28;45452;-71
2023/12/16 04:30:40;;;;;;;;;17.25;12.75;;;;;10.06;59.34;103746.47;5057844;28;45486;-71
2023/12/16 04:33:06;;;;;;;;;12.00;9.25;;;;;10.03;59.22;103734.94;5057880;28;45413;-70
2023/12/16 04:35:31;;;;;;;;;11.50;10.50;;;;;10.07;59.54;103734.28;5057774;28;45644;-72
2023/12/16 04:37:58;;;;;;;;;16.25;12.25;;;;;10.13;59.80;103750.28;5058307;28;45378;-71
2023/12/16 04:40:23;;;;;;;;;13.25;11.75;;;;;10.12;59.75;103748.50;5058891;28;45654;-70
2023/12/16 04:42:49;;;;;;;;;3.25;0.00;;;;;9.99;59.81;103741.75;5058161;28;45451;-69
2023/12/16 04:45:14;;;;;;;;;15.50;9.50;;;;;9.97;59.83;103736.41;5057858;28;45655;-71
2023/12/16 04:47:40;;;;;;;;;7.25;1.75;;;;;9.89;59.92;103718.50;5057714;28;45359;-71
2023/12/16 04:50:06;;;;;;;;;16.25;14.00;;;;;9.73;59.56;103696.75;5057335;28;45506;-70
2023/12/16 04:52:32;;;;;;;;;15.50;12.25;;;;;10.04;59.53;103744.59;5058995;28;45298;-70
2023/12/16 04:54:57;;;;;;;;;16.50;11.75;;;;;10.04;60.01;103748.09;5062662;28;46268;-70
2023/12/16 04:57:23;;;;;;;;;17.25;13.25;;;;;10.03;59.50;103742.78;5066001;28;45467;-69
2023/12/16 04:59:49;;;;;;;;;16.75;13.25;;;;;9.95;59.95;103747.63;5060466;28;45384;-70
2023/12/16 05:02:14;;;;;;;;;14.25;11.75;;;;;9.82;59.70;103718.97;5057950;28;46487;-70
2023/12/16 05:04:40;;;;;;;;;17.75;12.25;;;;;9.89;60.24;103723.72;5058595;28;46490;-71
2023/12/16 05:07:09;;;;;;;;;13.00;10.50;;;;;9.94;60.31;103749.34;5057756;28;45257;-70
2023/12/16 05:09:35;;;;;;;;;12.50;12.50;;;;;9.87;60.24;103738.44;5056015;28;45449;-70
2023/12/16 05:12:00;;;;;;;;;16.25;11.75;;;;;9.77;60.15;103737.06;5057098;28;45470;-72
2023/12/16 05:14:26;;;;;;;;;14.75;11.75;;;;;9.65;60.73;103713.75;5056860;28;46598;-70
2023/12/16 05:16:51;;;;;;;;;14.75;11.50;;;;;9.80;60.47;103746.78;5056970;28;45401;-71
2023/12/16 05:19:17;;;;;;;;;15.75;12.25;;;;;9.77;60.52;103743.22;5057911;28;45390;-70
2023/12/16 05:21:42;;;;;;;;;14.50;11.75;;;;;9.76;60.72;103736.16;5058792;28;45447;-70
2023/12/16 05:24:08;;;;;;;;;14.00;12.50;;;;;9.76;61.44;103741.41;5057299;28;45885;-70
2023/12/16 05:26:33;;;;;;;;;19.00;13.50;;;;;9.49;61.48;103691.13;5057048;28;45575;-70
2023/12/16 05:28:59;;;;;;;;;25.00;16.00;;;;;9.70;61.78;103734.94;5057471;28;45414;-71
2023/12/16 05:31:24;;;;;;;;;21.50;16.75;;;;;9.67;62.01;103740.91;5057289;28;45351;-71
2023/12/16 05:33:50;;;;;;;;;19.00;14.25;;;;;9.65;62.02;103737.31;5057047;28;45476;-71
2023/12/16 05:36:16;;;;;;;;;16.00;14.00;;;;;9.62;61.94;103731.91;5055628;28;46191;-71
2023/12/16 05:38:41;;;;;;;;;17.25;14.50;;;;;9.48;62.22;103702.38;5057926;28;46796;-71
2023/12/16 05:41:07;;;;;;;;;23.25;16.75;;;;;9.59;61.77;103729.16;5057685;28;45694;-70
2023/12/16 05:43:32;;;;;;;;;23.75;16.25;;;;;9.38;62.07;103689.63;5057685;28;46578;-71
2023/12/16 05:45:58;;;;;;;;;14.00;13.50;;;;;9.55;62.07;103733.28;5056775;28;45572;-70
2023/12/16 05:48:24;;;;;;;;;17.25;12.50;;;;;9.36;62.41;103703.44;5057747;28;45384;-70
2023/12/16 05:50:49;;;;;;;;;15.00;12.75;;;;;9.49;62.47;103734.69;5056804;28;45510;-71
2023/12/16 05:53:15;;;;;;;;;14.50;14.00;;;;;9.22;63.22;103698.34;5057903;28;45387;-70
2023/12/16 05:55:40;;;;;;;;;21.00;18.25;;;;;9.25;62.87;103695.88;5056770;28;45346;-71
2023/12/16 05:58:06;;;;;;;;;22.25;19.75;;;;;9.44;63.23;103731.81;5056674;28;45522;-71
2023/12/16 06:00:32;;;;;;;;;20.00;17.00;;;;;9.40;63.45;103735.09;5057582;28;45478;-71
2023/12/16 06:02:58;;;;;;;;;18.00;17.00;;;;;9.39;63.07;103727.16;5056733;28;45653;-71
2023/12/16 06:05:27;;;;;;;;;18.75;15.25;;;;;9.27;63.32;103706.44;5056887;28;45357;-72
2023/12/16 06:07:52;;;;;;;;;17.75;16.00;;;;;9.46;63.24;103742.38;5058215;28;45566;-70
2023/12/16 06:10:18;;;;;;;;;19.25;18.75;;;;;9.36;63.48;103732.22;5056996;28;45306;-71
2023/12/16 06:12:43;;;;;;;;;26.75;19.25;;;;;9.37;63.57;103744.47;5056692;28;45473;-70
2023/12/16 06:15:09;;;;;;;;;20.75;17.75;;;;;9.33;63.51;103731.22;5056501;28;45492;-71
2023/12/16 06:17:35;;;;;;;;;27.00;19.25;;;;;9.39;63.66;103735.00;5057971;28;45266;-70
2023/12/16 06:20:00;;;;;;;;;24.50;16.75;;;;;9.29;63.96;103721.41;5056428;28;45407;-71
2023/12/16 06:22:26;;;;;;;;;15.50;15.50;;;;;9.39;63.23;103740.22;5059739;28;46071;-71
2023/12/16 06:24:51;;;;;;;;;15.00;14.75;;;;;9.32;63.80;103734.69;5063614;28;45272;-70
2023/12/16 06:27:16;;;;;;;;;15.75;13.50;;;;;9.41;63.58;103749.97;5064015;28;45332;-70
2023/12/16 06:29:42;;;;;;;;;10.00;8.75;;;;;9.42;63.35;103743.00;5065129;28;45334;-70
2023/12/16 06:32:08;;;;;;;;;14.75;11.25;;;;;9.33;63.55;103735.56;5063825;28;45746;-70
2023/12/16 06:34:33;;;;;;;;;19.00;11.50;;;;;9.37;63.09;103747.09;5064368;28;45337;-70
2023/12/16 06:36:59;;;;;;;;;12.50;9.50;;;;;9.37;62.73;103745.38;5063854;28;45457;-71
2023/12/16 06:39:25;;;;;;;;;11.00;10.25;;;;;9.31;62.66;103740.72;5063657;28;45519;-72
2023/12/16 06:41:51;;;;;;;;;14.00;9.75;;;;;9.43;62.49;103757.91;5063559;28;45607;-71
2023/12/16 06:44:16;;;;;;;;;14.00;11.75;;;;;9.26;63.96;103736.06;5064493;28;45961;-71
2023/12/16 06:46:41;;;;;;;;;13.00;10.50;;;;;9.19;63.42;103729.56;5063024;28;45303;-69
2023/12/16 06:49:07;;;;;;;;;12.50;10.50;;;;;9.39;63.22;103763.78;5063449;28;45929;-71
2023/12/16 06:51:33;;;;;;;;;14.00;12.00;;;;;9.34;63.76;103755.66;5062874;28;46031;-70
2023/12/16 06:53:58;;;;;;;;;14.50;13.25;;;;;9.39;63.00;103775.13;5062283;28;45498;-71
2023/12/16 06:56:24;;;;;;;;;17.75;13.00;;;;;9.11;63.49;103731.78;5062792;28;45587;-72
2023/12/16 06:58:50;;;;;;;;;18.00;14.00;;;;;9.31;63.36;103772.09;5063611;28;45339;-70
2023/12/16 07:01:15;;;;;;;;;18.00;15.50;;;;;9.25;63.28;103773.47;5061829;28;46436;-71
2023/12/16 07:03:41;;;;;;;;;20.50;14.25;;;;;9.21;62.96;103766.28;5062663;28;45290;-73
2023/12/16 07:06:09;;;;;;;;;15.00;13.00;;;;;9.20;62.75;103777.53;5063462;28;45281;-71
2023/12/16 07:08:36;;;;;;;;;20.25;12.75;;;;;9.13;63.13;103781.53;5062224;28;45560;-71
2023/12/16 07:11:03;;;;;;;;;25.00;20.50;;;;;9.01;64.21;103768.66;5062319;28;45490;-70
2023/12/16 07:13:29;;;;;;;;;33.75;29.75;;;;;9.05;65.13;103791.56;5062411;28;45337;-70
2023/12/16 07:16:05;;;;;;;;;36.00;31.00;;;;;9.03;64.99;103792.28;5062595;28;45424;-69
2023/12/16 07:18:31;;;;;;;;;39.50;33.75;;;;;9.04;65.35;103788.84;5061999;28;45298;-70
2023/12/16 07:20:56;;;;;;;;;31.50;31.50;;;;;8.89;65.52;103768.84;5060575;28;46114;-70
2023/12/16 07:23:23;;;;;;;;;36.75;32.25;;;;;8.94;65.91;103791.75;5061603;28;45508;-70
2023/12/16 07:25:50;;;;;;;;;36.50;31.00;;;;;8.67;66.01;103777.16;5061426;28;45557;-69
2023/12/16 07:28:16;;;;;;;;;25.50;23.75;;;;;8.71;66.81;103793.94;5062275;28;45550;-71
2023/12/16 07:30:45;;;;;;;;;34.50;32.25;;;;;8.69;66.74;103788.63;5061931;28;46049;-70
2023/12/16 07:33:11;;;;;;;;;43.25;35.75;;;;;8.68;67.00;103784.22;5060937;28;45295;-71
2023/12/16 07:35:39;;;;;;;;;41.00;33.50;;;;;8.57;66.87;103779.16;5059934;28;45480;-70
2023/12/16 07:38:07;;;;;;;;;37.50;33.25;;;;;8.48;67.06;103769.97;5058019;28;45556;-71
2023/12/16 07:40:34;;;;;;;;;40.00;33.50;;;;;8.62;66.95;103806.47;5059225;28;45948;-72
2023/12/16 07:43:00;;;;;;;;;40.00;34.00;;;;;8.40;67.19;103775.53;5058826;28;45338;-70
2023/12/16 07:45:26;;;;;;;;;40.50;33.50;;;;;8.32;67.54;103795.03;5058992;28;45420;-71
2023/12/16 07:47:55;;;;;;;;;34.00;30.50;;;;;8.00;68.11;103765.28;5057193;28;45570;-70
2023/12/16 07:50:21;;;;;;;;;43.00;33.75;;;;;8.24;68.49;103823.31;5059030;28;46108;-70
2023/12/16 07:52:46;;;;;;;;;40.50;32.50;;;;;8.14;68.61;103821.84;5059779;28;45267;-71
2023/12/16 07:55:13;;;;;;;;;42.00;34.25;;;;;8.00;69.09;103838.38;5060390;28;45787;-71
2023/12/16 07:57:38;;;;;;;;;43.25;32.75;;;;;7.91;69.42;103835.19;5059701;28;45413;-71
2023/12/16 08:00:05;;;;;;;;;32.50;28.00;;;;;7.87;69.45;103839.28;5058594;28;46236;-71
2023/12/16 08:02:33;;;;;;;;;38.00;34.25;;;;;7.76;69.56;103820.38;5058472;28;46616;-72
2023/12/16 08:05:05;;;;;;;;;48.25;37.25;;;;;7.83;70.02;103840.81;5060110;28;45546;-73
2023/12/16 08:07:31;;;;;;;;;40.50;33.50;;;;;7.83;69.69;103829.47;5052101;28;45507;-71
2023/12/16 08:09:56;;;;;;;;;38.75;33.75;;;;;7.93;69.59;103847.53;5059985;28;45436;-71
2023/12/16 08:12:22;;;;;;;;;39.50;35.75;;;;;7.93;69.46;103852.75;5059848;28;45535;-70
2023/12/16 08:14:48;;;;;;;;;43.25;36.00;;;;;7.94;69.55;103849.31;5065840;28;46157;-70
2023/12/16 08:17:13;;;;;;;;;41.50;35.25;;;;;7.86;70.11;103848.84;5067829;28;45478;-70
2023/12/16 08:19:39;;;;;;;;;49.25;36.00;;;;;7.80;70.40;103847.53;5051172;28;45446;-71
2023/12/16 08:22:05;;;;;;;;;44.00;35.00;;;;;7.80;70.26;103850.16;5049278;28;45425;-71
2023/12/16 08:24:32;;;;;;;;;44.25;34.75;;;;;7.73;70.35;103837.53;5058126;28;45638;-72
2023/12/16 08:26:58;;;;;;;;;36.00;34.25;;;;;7.89;69.90;103853.34;5058330;28;45449;-71
2023/12/16 08:29:23;;;;;;;;;42.50;35.75;;;;;7.99;69.74;103840.06;5057919;28;45410;-71
2023/12/16 08:31:49;;;;;;;;;46.75;36.00;;;;;8.05;69.33;103834.34;5058418;28;45669;-71
2023/12/16 08:34:14;;;;;;;;;48.50;35.75;;;;;8.27;69.29;103857.44;5059158;28;45172;-70
2023/12/16 08:36:41;;;;;;;;;55.00;39.50;;;;;8.25;69.39;103854.72;5058204;28;45417;-71
2023/12/16 08:39:07;;;;;;;;;52.75;40.50;;;;;8.39;69.84;103865.13;5058316;28;45536;-72
2023/12/16 08:41:32;;;;;;;;;49.75;40.00;;;;;8.33;69.07;103830.78;5056661;28;45288;-71
2023/12/16 08:43:58;;;;;;;;;51.25;38.75;;;;;8.57;68.41;103857.53;5057884;28;45439;-72
2023/12/16 08:46:25;;;;;;;;;54.00;39.75;;;;;8.74;68.02;103863.78;5056477;28;45482;-71
2023/12/16 08:48:53;;;;;;;;;47.50;38.50;;;;;8.86;67.15;103865.41;5057480;28;45611;-74
2023/12/16 08:51:22;;;;;;;;;55.00;42.25;;;;;8.88;68.46;103863.78;5057035;28;45412;-72
2023/12/16 08:53:48;;;;;;;;;51.75;42.25;;;;;8.65;67.09;103830.16;5060011;28;45634;-73
2023/12/16 08:56:17;;;;;;;;;57.50;41.25;;;;;8.91;66.75;103878.75;5060158;28;45422;-73
2023/12/16 08:58:45;;;;;;;;;57.00;45.00;;;;;9.34;65.90;103876.88;5049838;28;45502;-72
2023/12/16 09:01:10;;;;;;;;;58.25;45.50;;;;;9.86;63.71;103857.97;5055997;28;45499;-72
2023/12/16 09:03:36;;;;;;;;;54.50;41.25;;;;;10.85;62.67;103869.34;5055222;28;45479;-72
2023/12/16 09:06:02;;;;;;;;;56.00;44.75;;;;;12.27;59.63;103849.06;5053898;28;45848;-72
2023/12/16 09:08:28;;;;;;;;;56.75;43.75;;;;;13.71;55.42;103848.00;5057998;28;45548;-73
2023/12/16 09:10:53;;;;;;;;;57.75;40.50;;;;;14.88;50.72;103862.81;5056774;28;45430;-71
2023/12/16 09:13:19;;;;;;;;;53.00;39.75;;;;;15.57;49.04;103821.06;5057219;28;45625;-73
2023/12/16 09:15:44;;;;;;;;;46.75;39.00;;;;;16.70;46.69;103822.47;5057411;28;45446;-71
2023/12/16 09:18:11;;;;;;;;;49.75;40.00;;;;;17.64;44.78;103808.84;5058124;28;45625;-70
2023/12/16 09:20:37;;;;;;;;;46.25;35.75;;;;;18.91;42.73;103851.16;5058549;28;45406;-71
2023/12/16 09:23:03;;;;;;;;;51.00;38.75;;;;;19.70;39.89;103838.16;5056979;28;45452;-69
2023/12/16 09:25:29;;;;;;;;;47.25;39.00;;;;;20.45;39.46;103839.91;5058128;28;45413;-71
2023/12/16 09:27:55;;;;;;;;;55.00;43.25;;;;;21.10;37.71;103844.06;5056607;28;45650;-70
2023/12/16 09:30:20;;;;;;;;;51.50;43.00;;;;;21.79;37.51;103832.06;5056978;28;45444;-71
2023/12/16 09:32:46;;;;;;;;;53.25;42.00;;;;;21.98;34.71;103805.44;5056737;28;45848;-71
2023/12/16 09:35:11;;;;;;;;;37.75;30.75;;;;;22.38;34.69;103837.59;5057290;28;45329;-72
2023/12/16 09:37:37;;;;;;;;;53.00;40.75;;;;;22.63;33.16;103841.16;5057432;28;45328;-73
2023/12/16 09:40:03;;;;;;;;;45.75;37.00;;;;;22.94;33.44;103830.47;5057610;28;45311;-70
2023/12/16 09:42:29;;;;;;;;;48.75;40.50;;;;;23.53;32.39;103791.16;5056872;28;45381;-75
2023/12/16 09:45:00;;;;;;;;;49.00;39.00;;;;;24.51;31.80;103829.03;5058319;28;45492;-71
2023/12/16 09:47:25;;;;;;;;;50.67;40.33;;;;;25.11;30.89;103843.72;5056875;28;46844;-70
2023/12/16 09:49:53;;;;;;;;;50.33;40.33;;;;;25.47;30.12;103823.66;5057081;28;45492;-73
2023/12/16 09:52:19;;;;;;;;;51.00;41.33;;;;;26.11;28.55;103848.81;5056301;28;45434;-71
2023/12/16 09:54:44;;;;;;;;;48.67;39.33;;;;;26.44;28.58;103850.09;5056987;28;45321;-69
2023/12/16 09:57:12;;;;;;;;;49.00;41.00;;;;;27.08;27.54;103836.50;5056014;28;47898;-70
2023/12/16 09:59:39;;;;;;;;;48.00;38.67;;;;;27.12;27.50;103856.16;5055714;28;45408;-72
2023/12/16 10:02:15;;;;;;;;;40.33;33.67;;;;;27.71;26.91;103843.34;5057285;28;45225;-70
2023/12/16 10:04:41;;;;;;;;;44.67;37.33;;;;;28.07;26.60;103827.31;5057151;28;45460;-72
2023/12/16 10:07:08;;;;;;;;;49.00;37.33;;;;;28.03;26.15;103825.63;5055756;28;45421;-70
2023/12/16 10:09:34;;;;;;;;;48.00;37.67;;;;;28.21;25.78;103829.69;5058420;28;45424;-71
2023/12/16 10:12:00;;;;;;;;;45.67;36.67;;;;;28.57;24.59;103837.81;5056808;28;45355;-70
2023/12/16 10:14:44;;;;;;;;;48.00;37.00;;;;;29.07;25.77;103833.84;5062327;27;45416;-73
2023/12/16 10:17:10;;;;;;;;;44.00;36.67;;;;;29.32;24.62;103816.94;5064022;28;45455;-72
2023/12/16 10:19:37;;;;;;;;;46.67;36.00;;;;;29.73;23.53;103839.16;5063226;28;45297;-72
2023/12/16 10:22:05;;;;;;;;;45.00;37.33;;;;;30.12;24.09;103825.38;5048689;28;45459;-72
2023/12/16 10:24:36;;;;;;;;;47.67;39.67;;;;;30.36;22.58;103835.41;5059804;28;45468;-72
2023/12/16 10:27:04;;;;;;;;;45.00;37.00;;;;;30.37;23.36;103793.00;5059381;28;45472;-73
2023/12/16 10:29:33;;;;;;;;;48.67;41.33;;;;;30.67;22.22;103822.66;5058649;28;45345;-75
2023/12/16 10:31:59;;;;;;;;;44.33;37.67;;;;;30.48;22.50;103815.16;5056897;28;45396;-73
2023/12/16 10:34:29;;;;;;;;;46.33;40.00;;;;;30.47;22.03;103826.94;5057000;28;45392;-73
2023/12/16 10:37:07;;;;;;;;;48.67;39.00;;;;;30.18;22.79;103820.66;5056888;28;46283;-73
2023/12/16 10:39:34;;;;;;;;;47.67;38.33;;;;;30.07;23.09;103817.41;5058258;28;45492;-74
2023/12/16 10:42:00;;;;;;;;;50.33;40.00;;;;;30.37;22.07;103802.03;5058355;28;45428;-74
2023/12/16 10:44:26;;;;;;;;;54.33;41.00;;;;;30.91;22.16;103826.34;5057069;28;45504;-72
2023/12/16 10:46:55;;;;;;;;;45.33;36.67;;;;;30.83;21.71;103816.69;5056643;28;45499;-74
2023/12/16 10:49:31;;;;;;;;;50.67;39.33;;;;;31.17;21.39;103810.03;5057343;28;45329;-73
2023/12/16 10:52:21;;;;;;;;;50.00;39.67;;;;;31.31;21.37;103797.81;5056882;28;45275;-74
2023/12/16 10:55:01;;;;;;;;;50.00;41.33;;;;;31.56;21.14;103803.19;5056062;28;45354;-73
2023/12/16 10:57:47;;;;;;;;;52.00;42.00;;;;;31.98;20.81;103797.94;5055706;28;46202;-79
2023/12/16 11:00:22;;;;;;;;;52.33;42.67;;;;;31.81;21.10;103795.88;5050914;28;45471;-77
2023/12/16 11:03:05;;;;;;;;;49.33;40.00;;;;;31.79;20.96;103792.34;5058155;28;45293;-75
2023/12/16 11:05:34;;;;;;;;;53.00;41.00;;;;;31.74;20.64;103786.22;5056880;28;45425;-75
2023/12/16 11:08:03;;;;;;;;;52.33;40.33;;;;;31.88;20.71;103796.50;5057135;28;45508;-76
2023/12/16 11:10:30;;;;;;;;;57.33;45.67;;;;;31.93;20.81;103791.78;5060521;28;45509;-73
2023/12/16 11:13:02;;;;;;;;;56.00;44.00;;;;;31.99;20.79;103779.84;5061278;28;45222;-75